sensor_id;sensor_type;location;lat;lon;timestamp;P1;durP1;ratioP1;P2;durP2;ratioP2
10031;SDS011;5056;44.272;19.892;2023-05-29T00:01:16;23.15;;;20.90;;
10031;SDS011;5056;44.272;19.892;2023-05-29T00:03:46;23.25;;;20.80;;
10031;SDS011;5056;44.272;19.892;2023-05-29T00:06:38;22.95;;;20.80;;
10031;SDS011;5056;44.272;19.892;2023-05-29T00:09:07;21.50;;;19.55;;
10031;SDS011;5056;44.272;19.892;2023-05-29T00:11:34;20.73;;;18.73;;
10031;SDS011;5056;44.272;19.892;2023-05-29T00:14:02;20.85;;;19.05;;
10031;SDS011;5056;44.272;19.892;2023-05-29T00:16:32;18.52;;;16.83;;
10031;SDS011;5056;44.272;19.892;2023-05-29T00:19:00;19.80;;;18.00;;
10031;SDS011;5056;44.272;19.892;2023-05-29T00:21:27;18.92;;;17.23;;
10031;SDS011;5056;44.272;19.892;2023-05-29T00:23:54;18.88;;;16.88;;
10031;SDS011;5056;44.272;19.892;2023-05-29T00:26:21;19.17;;;17.38;;
10031;SDS011;5056;44.272;19.892;2023-05-29T00:28:48;18.60;;;16.90;;
10031;SDS011;5056;44.272;19.892;2023-05-29T00:31:15;18.63;;;17.02;;
10031;SDS011;5056;44.272;19.892;2023-05-29T00:33:44;18.95;;;17.20;;
10031;SDS011;5056;44.272;19.892;2023-05-29T00:36:11;19.17;;;17.45;;
10031;SDS011;5056;44.272;19.892;2023-05-29T00:38:41;18.55;;;16.75;;
10031;SDS011;5056;44.272;19.892;2023-05-29T00:41:08;18.58;;;16.80;;
10031;SDS011;5056;44.272;19.892;2023-05-29T00:43:40;19.50;;;17.58;;
10031;SDS011;5056;44.272;19.892;2023-05-29T00:46:07;19.42;;;17.73;;
10031;SDS011;5056;44.272;19.892;2023-05-29T00:48:34;20.40;;;18.45;;
10031;SDS011;5056;44.272;19.892;2023-05-29T00:51:03;19.08;;;17.38;;
10031;SDS011;5056;44.272;19.892;2023-05-29T00:53:32;18.85;;;17.20;;
10031;SDS011;5056;44.272;19.892;2023-05-29T00:55:59;19.58;;;17.75;;
10031;SDS011;5056;44.272;19.892;2023-05-29T00:58:28;19.27;;;17.48;;
10031;SDS011;5056;44.272;19.892;2023-05-29T01:00:55;19.38;;;17.58;;
10031;SDS011;5056;44.272;19.892;2023-05-29T01:03:22;18.55;;;16.90;;
10031;SDS011;5056;44.272;19.892;2023-05-29T01:05:50;18.33;;;16.52;;
10031;SDS011;5056;44.272;19.892;2023-05-29T01:08:25;18.50;;;16.83;;
10031;SDS011;5056;44.272;19.892;2023-05-29T01:10:53;17.48;;;15.88;;
10031;SDS011;5056;44.272;19.892;2023-05-29T01:13:30;18.17;;;16.02;;
10031;SDS011;5056;44.272;19.892;2023-05-29T01:16:01;19.75;;;17.77;;
10031;SDS011;5056;44.272;19.892;2023-05-29T01:18:34;18.60;;;17.05;;
10031;SDS011;5056;44.272;19.892;2023-05-29T01:21:07;22.33;;;20.10;;
10031;SDS011;5056;44.272;19.892;2023-05-29T01:23:40;21.85;;;19.77;;
10031;SDS011;5056;44.272;19.892;2023-05-29T01:26:47;20.83;;;18.88;;
10031;SDS011;5056;44.272;19.892;2023-05-29T01:29:24;17.92;;;16.27;;
10031;SDS011;5056;44.272;19.892;2023-05-29T01:31:53;17.05;;;15.55;;
10031;SDS011;5056;44.272;19.892;2023-05-29T01:34:25;18.25;;;16.58;;
10031;SDS011;5056;44.272;19.892;2023-05-29T01:36:52;19.88;;;17.30;;
10031;SDS011;5056;44.272;19.892;2023-05-29T01:39:20;19.38;;;17.48;;
10031;SDS011;5056;44.272;19.892;2023-05-29T01:44:40;19.27;;;16.88;;
10031;SDS011;5056;44.272;19.892;2023-05-29T01:47:07;18.17;;;16.48;;
10031;SDS011;5056;44.272;19.892;2023-05-29T01:49:43;18.42;;;16.73;;
10031;SDS011;5056;44.272;19.892;2023-05-29T01:52:10;19.27;;;17.38;;
10031;SDS011;5056;44.272;19.892;2023-05-29T01:54:38;19.23;;;17.38;;
10031;SDS011;5056;44.272;19.892;2023-05-29T01:57:08;19.33;;;17.00;;
10031;SDS011;5056;44.272;19.892;2023-05-29T01:59:37;17.75;;;16.02;;
10031;SDS011;5056;44.272;19.892;2023-05-29T02:02:11;16.38;;;14.98;;
10031;SDS011;5056;44.272;19.892;2023-05-29T02:04:40;18.38;;;16.67;;
10031;SDS011;5056;44.272;19.892;2023-05-29T02:07:11;18.02;;;16.48;;
10031;SDS011;5056;44.272;19.892;2023-05-29T02:09:41;15.52;;;14.23;;
10031;SDS011;5056;44.272;19.892;2023-05-29T02:12:11;18.58;;;16.92;;
10031;SDS011;5056;44.272;19.892;2023-05-29T02:14:38;18.23;;;16.50;;
10031;SDS011;5056;44.272;19.892;2023-05-29T02:17:06;18.85;;;17.08;;
10031;SDS011;5056;44.272;19.892;2023-05-29T02:19:36;18.88;;;17.00;;
10031;SDS011;5056;44.272;19.892;2023-05-29T02:22:03;18.23;;;16.63;;
10031;SDS011;5056;44.272;19.892;2023-05-29T02:24:33;18.58;;;16.77;;
10031;SDS011;5056;44.272;19.892;2023-05-29T02:27:00;18.85;;;17.00;;
10031;SDS011;5056;44.272;19.892;2023-05-29T02:29:29;18.52;;;16.63;;
10031;SDS011;5056;44.272;19.892;2023-05-29T02:31:56;17.50;;;15.75;;
10031;SDS011;5056;44.272;19.892;2023-05-29T02:34:23;17.50;;;15.80;;
10031;SDS011;5056;44.272;19.892;2023-05-29T02:36:53;17.42;;;15.73;;
10031;SDS011;5056;44.272;19.892;2023-05-29T02:39:20;16.25;;;14.82;;
10031;SDS011;5056;44.272;19.892;2023-05-29T02:41:48;16.65;;;14.98;;
10031;SDS011;5056;44.272;19.892;2023-05-29T02:44:16;17.52;;;15.90;;
10031;SDS011;5056;44.272;19.892;2023-05-29T02:46:45;18.10;;;16.33;;
10031;SDS011;5056;44.272;19.892;2023-05-29T02:51:50;18.92;;;17.15;;
10031;SDS011;5056;44.272;19.892;2023-05-29T02:54:24;17.83;;;16.23;;
10031;SDS011;5056;44.272;19.892;2023-05-29T02:56:52;17.95;;;16.30;;
10031;SDS011;5056;44.272;19.892;2023-05-29T02:59:22;17.55;;;15.98;;
10031;SDS011;5056;44.272;19.892;2023-05-29T03:01:50;16.58;;;15.18;;
10031;SDS011;5056;44.272;19.892;2023-05-29T03:04:17;18.02;;;16.30;;
10031;SDS011;5056;44.272;19.892;2023-05-29T03:06:44;17.33;;;15.82;;
10031;SDS011;5056;44.272;19.892;2023-05-29T03:09:10;18.00;;;16.13;;
10031;SDS011;5056;44.272;19.892;2023-05-29T03:11:40;18.33;;;16.42;;
10031;SDS011;5056;44.272;19.892;2023-05-29T03:14:06;16.38;;;14.98;;
10031;SDS011;5056;44.272;19.892;2023-05-29T03:16:34;16.33;;;14.93;;
10031;SDS011;5056;44.272;19.892;2023-05-29T03:19:01;16.77;;;15.20;;
10031;SDS011;5056;44.272;19.892;2023-05-29T03:21:28;17.63;;;15.85;;
10031;SDS011;5056;44.272;19.892;2023-05-29T03:23:56;17.83;;;16.17;;
10031;SDS011;5056;44.272;19.892;2023-05-29T03:26:23;17.23;;;15.73;;
10031;SDS011;5056;44.272;19.892;2023-05-29T03:28:53;17.63;;;16.10;;
10031;SDS011;5056;44.272;19.892;2023-05-29T03:31:20;17.58;;;15.98;;
10031;SDS011;5056;44.272;19.892;2023-05-29T03:33:48;16.92;;;15.35;;
10031;SDS011;5056;44.272;19.892;2023-05-29T03:36:19;16.23;;;14.63;;
10031;SDS011;5056;44.272;19.892;2023-05-29T03:38:46;16.38;;;14.88;;
10031;SDS011;5056;44.272;19.892;2023-05-29T03:41:13;16.92;;;15.52;;
10031;SDS011;5056;44.272;19.892;2023-05-29T03:43:40;18.58;;;16.88;;
10031;SDS011;5056;44.272;19.892;2023-05-29T03:46:11;17.77;;;16.17;;
10031;SDS011;5056;44.272;19.892;2023-05-29T03:48:38;16.27;;;14.90;;
10031;SDS011;5056;44.272;19.892;2023-05-29T03:51:05;17.73;;;16.13;;
10031;SDS011;5056;44.272;19.892;2023-05-29T03:53:33;16.15;;;14.75;;
10031;SDS011;5056;44.272;19.892;2023-05-29T03:56:00;18.38;;;16.60;;
10031;SDS011;5056;44.272;19.892;2023-05-29T03:58:27;17.40;;;15.80;;
10031;SDS011;5056;44.272;19.892;2023-05-29T04:00:57;17.38;;;15.68;;
10031;SDS011;5056;44.272;19.892;2023-05-29T04:03:25;18.38;;;16.55;;
10031;SDS011;5056;44.272;19.892;2023-05-29T04:05:54;17.70;;;16.10;;
10031;SDS011;5056;44.272;19.892;2023-05-29T04:08:22;17.85;;;16.15;;
10031;SDS011;5056;44.272;19.892;2023-05-29T04:10:52;18.00;;;16.40;;
10031;SDS011;5056;44.272;19.892;2023-05-29T04:13:20;19.48;;;17.58;;
10031;SDS011;5056;44.272;19.892;2023-05-29T04:15:47;20.10;;;18.05;;
10031;SDS011;5056;44.272;19.892;2023-05-29T04:18:21;19.65;;;17.58;;
10031;SDS011;5056;44.272;19.892;2023-05-29T04:20:52;18.60;;;16.73;;
10031;SDS011;5056;44.272;19.892;2023-05-29T04:23:21;19.40;;;17.48;;
10031;SDS011;5056;44.272;19.892;2023-05-29T04:25:48;19.08;;;17.13;;
10031;SDS011;5056;44.272;19.892;2023-05-29T04:28:16;18.80;;;17.10;;
10031;SDS011;5056;44.272;19.892;2023-05-29T04:30:46;17.90;;;16.38;;
10031;SDS011;5056;44.272;19.892;2023-05-29T04:33:15;18.05;;;16.35;;
10031;SDS011;5056;44.272;19.892;2023-05-29T04:35:44;18.70;;;16.90;;
10031;SDS011;5056;44.272;19.892;2023-05-29T04:38:15;20.60;;;18.60;;
10031;SDS011;5056;44.272;19.892;2023-05-29T04:40:42;19.85;;;17.83;;
10031;SDS011;5056;44.272;19.892;2023-05-29T04:43:10;20.42;;;18.40;;
10031;SDS011;5056;44.272;19.892;2023-05-29T04:45:38;19.77;;;17.98;;
10031;SDS011;5056;44.272;19.892;2023-05-29T04:48:07;19.25;;;17.35;;
10031;SDS011;5056;44.272;19.892;2023-05-29T04:50:34;22.40;;;19.75;;
10031;SDS011;5056;44.272;19.892;2023-05-29T04:53:03;20.35;;;18.42;;
10031;SDS011;5056;44.272;19.892;2023-05-29T04:55:32;17.98;;;16.40;;
10031;SDS011;5056;44.272;19.892;2023-05-29T04:57:59;18.23;;;16.58;;
10031;SDS011;5056;44.272;19.892;2023-05-29T05:00:26;19.20;;;17.40;;
10031;SDS011;5056;44.272;19.892;2023-05-29T05:02:54;19.13;;;17.40;;
10031;SDS011;5056;44.272;19.892;2023-05-29T05:05:24;18.25;;;16.58;;
10031;SDS011;5056;44.272;19.892;2023-05-29T05:07:51;19.27;;;17.33;;
10031;SDS011;5056;44.272;19.892;2023-05-29T05:13:23;19.48;;;17.58;;
10031;SDS011;5056;44.272;19.892;2023-05-29T05:15:50;19.90;;;18.02;;
10031;SDS011;5056;44.272;19.892;2023-05-29T05:18:24;19.90;;;18.17;;
10031;SDS011;5056;44.272;19.892;2023-05-29T05:21:25;20.25;;;18.42;;
10031;SDS011;5056;44.272;19.892;2023-05-29T05:23:53;19.92;;;18.10;;
10031;SDS011;5056;44.272;19.892;2023-05-29T05:26:30;21.05;;;18.95;;
10031;SDS011;5056;44.272;19.892;2023-05-29T05:32:03;21.98;;;19.73;;
10031;SDS011;5056;44.272;19.892;2023-05-29T05:34:31;20.20;;;18.40;;
10031;SDS011;5056;44.272;19.892;2023-05-29T05:36:58;22.35;;;20.08;;
10031;SDS011;5056;44.272;19.892;2023-05-29T05:39:27;21.50;;;19.40;;
10031;SDS011;5056;44.272;19.892;2023-05-29T05:41:57;21.90;;;19.85;;
10031;SDS011;5056;44.272;19.892;2023-05-29T05:44:24;21.40;;;19.42;;
10031;SDS011;5056;44.272;19.892;2023-05-29T05:46:51;21.02;;;18.98;;
10031;SDS011;5056;44.272;19.892;2023-05-29T05:49:18;21.00;;;18.90;;
10031;SDS011;5056;44.272;19.892;2023-05-29T05:52:01;21.40;;;19.35;;
10031;SDS011;5056;44.272;19.892;2023-05-29T05:54:27;22.10;;;19.88;;
10031;SDS011;5056;44.272;19.892;2023-05-29T05:56:58;21.45;;;19.45;;
10031;SDS011;5056;44.272;19.892;2023-05-29T05:59:34;20.90;;;19.05;;
10031;SDS011;5056;44.272;19.892;2023-05-29T06:02:01;21.50;;;19.35;;
10031;SDS011;5056;44.272;19.892;2023-05-29T06:04:30;20.80;;;18.70;;
10031;SDS011;5056;44.272;19.892;2023-05-29T06:06:59;20.02;;;18.33;;
10031;SDS011;5056;44.272;19.892;2023-05-29T06:09:25;20.10;;;18.38;;
10031;SDS011;5056;44.272;19.892;2023-05-29T06:11:54;19.92;;;18.17;;
10031;SDS011;5056;44.272;19.892;2023-05-29T06:14:36;20.55;;;18.60;;
10031;SDS011;5056;44.272;19.892;2023-05-29T06:17:03;19.17;;;17.58;;
10031;SDS011;5056;44.272;19.892;2023-05-29T06:19:31;20.20;;;18.30;;
10031;SDS011;5056;44.272;19.892;2023-05-29T06:21:58;19.95;;;17.35;;
10031;SDS011;5056;44.272;19.892;2023-05-29T06:24:25;19.52;;;17.77;;
10031;SDS011;5056;44.272;19.892;2023-05-29T06:26:52;19.77;;;17.98;;
10031;SDS011;5056;44.272;19.892;2023-05-29T06:29:26;21.35;;;19.30;;
10031;SDS011;5056;44.272;19.892;2023-05-29T06:31:55;20.17;;;18.38;;
10031;SDS011;5056;44.272;19.892;2023-05-29T06:34:22;20.15;;;18.35;;
10031;SDS011;5056;44.272;19.892;2023-05-29T06:36:51;20.13;;;18.42;;
10031;SDS011;5056;44.272;19.892;2023-05-29T06:39:18;19.67;;;17.98;;
10031;SDS011;5056;44.272;19.892;2023-05-29T06:41:45;18.75;;;17.05;;
10031;SDS011;5056;44.272;19.892;2023-05-29T06:47:18;17.38;;;15.98;;
10031;SDS011;5056;44.272;19.892;2023-05-29T06:49:45;18.65;;;17.02;;
10031;SDS011;5056;44.272;19.892;2023-05-29T06:52:12;17.27;;;15.82;;
10031;SDS011;5056;44.272;19.892;2023-05-29T06:54:39;17.08;;;15.57;;
10031;SDS011;5056;44.272;19.892;2023-05-29T06:57:06;16.70;;;14.98;;
10031;SDS011;5056;44.272;19.892;2023-05-29T07:05:31;16.35;;;14.85;;
10031;SDS011;5056;44.272;19.892;2023-05-29T07:07:58;14.98;;;13.48;;
10031;SDS011;5056;44.272;19.892;2023-05-29T07:10:32;15.63;;;13.80;;
10031;SDS011;5056;44.272;19.892;2023-05-29T07:13:00;14.63;;;13.35;;
10031;SDS011;5056;44.272;19.892;2023-05-29T07:18:27;14.65;;;13.35;;
10031;SDS011;5056;44.272;19.892;2023-05-29T07:23:31;14.45;;;13.23;;
10031;SDS011;5056;44.272;19.892;2023-05-29T07:25:58;13.85;;;12.40;;
10031;SDS011;5056;44.272;19.892;2023-05-29T07:28:25;13.35;;;12.25;;
10031;SDS011;5056;44.272;19.892;2023-05-29T07:30:53;13.77;;;12.65;;
10031;SDS011;5056;44.272;19.892;2023-05-29T07:33:20;14.27;;;12.98;;
10031;SDS011;5056;44.272;19.892;2023-05-29T07:35:49;13.55;;;12.45;;
10031;SDS011;5056;44.272;19.892;2023-05-29T07:38:17;13.18;;;12.00;;
10031;SDS011;5056;44.272;19.892;2023-05-29T07:40:44;14.40;;;12.95;;
10031;SDS011;5056;44.272;19.892;2023-05-29T07:43:12;13.75;;;12.45;;
10031;SDS011;5056;44.272;19.892;2023-05-29T07:45:39;12.52;;;11.43;;
10031;SDS011;5056;44.272;19.892;2023-05-29T07:48:06;11.48;;;10.57;;
10031;SDS011;5056;44.272;19.892;2023-05-29T07:50:34;12.98;;;11.88;;
10031;SDS011;5056;44.272;19.892;2023-05-29T07:53:05;11.23;;;10.32;;
10031;SDS011;5056;44.272;19.892;2023-05-29T07:55:31;13.88;;;11.85;;
10031;SDS011;5056;44.272;19.892;2023-05-29T07:58:00;12.52;;;11.52;;
10031;SDS011;5056;44.272;19.892;2023-05-29T08:00:27;12.45;;;11.45;;
10031;SDS011;5056;44.272;19.892;2023-05-29T08:02:54;12.30;;;11.30;;
10031;SDS011;5056;44.272;19.892;2023-05-29T08:05:22;13.18;;;12.02;;
10031;SDS011;5056;44.272;19.892;2023-05-29T08:07:49;12.85;;;11.75;;
10031;SDS011;5056;44.272;19.892;2023-05-29T08:10:19;13.90;;;12.73;;
10031;SDS011;5056;44.272;19.892;2023-05-29T08:12:46;12.85;;;11.75;;
10031;SDS011;5056;44.272;19.892;2023-05-29T08:15:15;13.75;;;12.52;;
10031;SDS011;5056;44.272;19.892;2023-05-29T08:17:45;13.38;;;12.27;;
10031;SDS011;5056;44.272;19.892;2023-05-29T08:20:12;14.32;;;12.98;;
10031;SDS011;5056;44.272;19.892;2023-05-29T08:22:39;14.07;;;12.77;;
10031;SDS011;5056;44.272;19.892;2023-05-29T08:25:06;12.02;;;10.93;;
10031;SDS011;5056;44.272;19.892;2023-05-29T08:27:38;14.40;;;13.10;;
10031;SDS011;5056;44.272;19.892;2023-05-29T08:30:06;16.58;;;15.15;;
10031;SDS011;5056;44.272;19.892;2023-05-29T08:32:33;13.65;;;12.55;;
10031;SDS011;5056;44.272;19.892;2023-05-29T08:35:02;12.00;;;10.93;;
10031;SDS011;5056;44.272;19.892;2023-05-29T08:37:30;13.77;;;12.48;;
10031;SDS011;5056;44.272;19.892;2023-05-29T08:39:57;13.73;;;12.52;;
10031;SDS011;5056;44.272;19.892;2023-05-29T08:42:26;14.52;;;13.05;;
10031;SDS011;5056;44.272;19.892;2023-05-29T08:45:00;13.35;;;12.13;;
10031;SDS011;5056;44.272;19.892;2023-05-29T08:47:29;13.25;;;12.05;;
10031;SDS011;5056;44.272;19.892;2023-05-29T08:50:00;11.63;;;10.63;;
10031;SDS011;5056;44.272;19.892;2023-05-29T08:52:27;11.55;;;10.65;;
10031;SDS011;5056;44.272;19.892;2023-05-29T08:54:57;13.68;;;12.57;;
10031;SDS011;5056;44.272;19.892;2023-05-29T08:57:28;14.60;;;13.20;;
10031;SDS011;5056;44.272;19.892;2023-05-29T08:59:56;14.30;;;12.85;;
10031;SDS011;5056;44.272;19.892;2023-05-29T09:02:25;13.07;;;11.98;;
10031;SDS011;5056;44.272;19.892;2023-05-29T09:04:52;14.23;;;13.10;;
10031;SDS011;5056;44.272;19.892;2023-05-29T09:07:19;13.55;;;12.45;;
10031;SDS011;5056;44.272;19.892;2023-05-29T09:09:46;15.40;;;13.48;;
10031;SDS011;5056;44.272;19.892;2023-05-29T09:12:13;14.70;;;13.32;;
10031;SDS011;5056;44.272;19.892;2023-05-29T09:14:42;13.38;;;12.07;;
10031;SDS011;5056;44.272;19.892;2023-05-29T09:17:11;14.02;;;12.82;;
10031;SDS011;5056;44.272;19.892;2023-05-29T09:19:42;13.85;;;12.57;;
10031;SDS011;5056;44.272;19.892;2023-05-29T09:22:10;13.63;;;12.50;;
10031;SDS011;5056;44.272;19.892;2023-05-29T09:24:40;11.55;;;10.65;;
10031;SDS011;5056;44.272;19.892;2023-05-29T09:27:08;11.85;;;11.02;;
10031;SDS011;5056;44.272;19.892;2023-05-29T09:29:37;13.05;;;11.80;;
10031;SDS011;5056;44.272;19.892;2023-05-29T09:32:06;12.38;;;11.15;;
10031;SDS011;5056;44.272;19.892;2023-05-29T09:34:35;12.50;;;11.50;;
10031;SDS011;5056;44.272;19.892;2023-05-29T09:37:07;11.85;;;10.85;;
10031;SDS011;5056;44.272;19.892;2023-05-29T09:42:21;11.68;;;10.68;;
10031;SDS011;5056;44.272;19.892;2023-05-29T09:44:48;13.32;;;11.93;;
10031;SDS011;5056;44.272;19.892;2023-05-29T09:47:19;10.73;;;9.98;;
10031;SDS011;5056;44.272;19.892;2023-05-29T09:49:47;12.40;;;11.32;;
10031;SDS011;5056;44.272;19.892;2023-05-29T09:52:20;12.82;;;11.82;;
10031;SDS011;5056;44.272;19.892;2023-05-29T09:54:48;11.55;;;10.50;;
10031;SDS011;5056;44.272;19.892;2023-05-29T09:57:16;14.95;;;11.55;;
10031;SDS011;5056;44.272;19.892;2023-05-29T09:59:44;11.38;;;10.18;;
10031;SDS011;5056;44.272;19.892;2023-05-29T10:02:13;9.80;;;9.02;;
10031;SDS011;5056;44.272;19.892;2023-05-29T10:04:41;9.48;;;8.68;;
10031;SDS011;5056;44.272;19.892;2023-05-29T10:07:10;10.98;;;9.98;;
10031;SDS011;5056;44.272;19.892;2023-05-29T10:09:41;10.10;;;9.30;;
10031;SDS011;5056;44.272;19.892;2023-05-29T10:12:08;9.63;;;8.82;;
10031;SDS011;5056;44.272;19.892;2023-05-29T10:14:39;9.10;;;8.48;;
10031;SDS011;5056;44.272;19.892;2023-05-29T10:17:08;9.55;;;8.75;;
10031;SDS011;5056;44.272;19.892;2023-05-29T10:19:36;9.50;;;8.63;;
10031;SDS011;5056;44.272;19.892;2023-05-29T10:22:04;9.90;;;9.02;;
10031;SDS011;5056;44.272;19.892;2023-05-29T10:24:32;9.63;;;8.82;;
10031;SDS011;5056;44.272;19.892;2023-05-29T10:27:01;9.82;;;9.07;;
10031;SDS011;5056;44.272;19.892;2023-05-29T10:29:29;9.25;;;8.55;;
10031;SDS011;5056;44.272;19.892;2023-05-29T10:32:13;10.50;;;9.80;;
10031;SDS011;5056;44.272;19.892;2023-05-29T10:34:48;9.25;;;8.55;;
10031;SDS011;5056;44.272;19.892;2023-05-29T10:37:23;9.02;;;8.27;;
10031;SDS011;5056;44.272;19.892;2023-05-29T10:40:12;9.40;;;8.70;;
10031;SDS011;5056;44.272;19.892;2023-05-29T10:42:45;12.25;;;9.63;;
10031;SDS011;5056;44.272;19.892;2023-05-29T10:51:23;8.93;;;8.23;;
10031;SDS011;5056;44.272;19.892;2023-05-29T10:53:51;9.75;;;8.85;;
10031;SDS011;5056;44.272;19.892;2023-05-29T10:56:22;9.07;;;8.38;;
10031;SDS011;5056;44.272;19.892;2023-05-29T11:01:35;8.88;;;8.18;;
10031;SDS011;5056;44.272;19.892;2023-05-29T11:06:59;8.90;;;8.18;;
10031;SDS011;5056;44.272;19.892;2023-05-29T11:09:31;7.82;;;7.22;;
10031;SDS011;5056;44.272;19.892;2023-05-29T11:12:13;8.43;;;7.63;;
10031;SDS011;5056;44.272;19.892;2023-05-29T11:15:01;7.65;;;7.05;;
10031;SDS011;5056;44.272;19.892;2023-05-29T11:17:43;8.02;;;7.22;;
10031;SDS011;5056;44.272;19.892;2023-05-29T11:20:47;7.70;;;7.07;;
10031;SDS011;5056;44.272;19.892;2023-05-29T11:23:21;8.60;;;7.80;;
10031;SDS011;5056;44.272;19.892;2023-05-29T11:25:49;6.78;;;6.28;;
10031;SDS011;5056;44.272;19.892;2023-05-29T11:28:17;7.47;;;6.53;;
10031;SDS011;5056;44.272;19.892;2023-05-29T11:30:47;8.30;;;7.63;;
10031;SDS011;5056;44.272;19.892;2023-05-29T11:33:22;7.20;;;6.60;;
10031;SDS011;5056;44.272;19.892;2023-05-29T11:35:54;6.90;;;6.25;;
10031;SDS011;5056;44.272;19.892;2023-05-29T11:38:23;7.47;;;6.53;;
10031;SDS011;5056;44.272;19.892;2023-05-29T11:40:51;7.22;;;6.65;;
10031;SDS011;5056;44.272;19.892;2023-05-29T11:43:35;6.70;;;6.20;;
10031;SDS011;5056;44.272;19.892;2023-05-29T11:46:15;8.02;;;7.22;;
10031;SDS011;5056;44.272;19.892;2023-05-29T11:48:46;6.80;;;6.22;;
10031;SDS011;5056;44.272;19.892;2023-05-29T11:51:14;7.00;;;6.30;;
10031;SDS011;5056;44.272;19.892;2023-05-29T11:53:42;7.40;;;6.78;;
10031;SDS011;5056;44.272;19.892;2023-05-29T11:56:10;6.70;;;6.20;;
10031;SDS011;5056;44.272;19.892;2023-05-29T11:58:41;6.60;;;6.10;;
10031;SDS011;5056;44.272;19.892;2023-05-29T12:01:08;7.40;;;6.70;;
10031;SDS011;5056;44.272;19.892;2023-05-29T12:03:40;6.32;;;5.90;;
10031;SDS011;5056;44.272;19.892;2023-05-29T12:06:08;6.95;;;6.43;;
10031;SDS011;5056;44.272;19.892;2023-05-29T12:08:37;7.10;;;6.10;;
10031;SDS011;5056;44.272;19.892;2023-05-29T12:11:04;6.65;;;6.05;;
10031;SDS011;5056;44.272;19.892;2023-05-29T12:13:31;7.25;;;6.55;;
10031;SDS011;5056;44.272;19.892;2023-05-29T12:15:59;7.05;;;6.35;;
10031;SDS011;5056;44.272;19.892;2023-05-29T12:18:29;7.03;;;6.43;;
10031;SDS011;5056;44.272;19.892;2023-05-29T12:21:02;6.72;;;6.07;;
10031;SDS011;5056;44.272;19.892;2023-05-29T12:23:30;7.72;;;6.70;;
10031;SDS011;5056;44.272;19.892;2023-05-29T12:25:58;7.18;;;6.57;;
10031;SDS011;5056;44.272;19.892;2023-05-29T12:28:25;6.47;;;5.97;;
10031;SDS011;5056;44.272;19.892;2023-05-29T12:30:57;8.30;;;6.18;;
10031;SDS011;5056;44.272;19.892;2023-05-29T12:33:27;5.88;;;5.47;;
10031;SDS011;5056;44.272;19.892;2023-05-29T12:36:02;6.57;;;6.03;;
10031;SDS011;5056;44.272;19.892;2023-05-29T12:38:30;6.40;;;5.90;;
10031;SDS011;5056;44.272;19.892;2023-05-29T12:40:57;6.55;;;6.05;;
10031;SDS011;5056;44.272;19.892;2023-05-29T12:43:26;6.38;;;5.88;;
10031;SDS011;5056;44.272;19.892;2023-05-29T12:45:54;6.18;;;5.68;;
10031;SDS011;5056;44.272;19.892;2023-05-29T12:48:26;6.68;;;6.05;;
10031;SDS011;5056;44.272;19.892;2023-05-29T12:50:53;7.50;;;6.65;;
10031;SDS011;5056;44.272;19.892;2023-05-29T12:53:27;7.10;;;6.57;;
10031;SDS011;5056;44.272;19.892;2023-05-29T12:55:57;12.55;;;7.70;;
10031;SDS011;5056;44.272;19.892;2023-05-29T12:58:24;8.85;;;7.95;;
10031;SDS011;5056;44.272;19.892;2023-05-29T13:00:52;8.50;;;7.75;;
10031;SDS011;5056;44.272;19.892;2023-05-29T13:03:21;9.02;;;8.40;;
10031;SDS011;5056;44.272;19.892;2023-05-29T13:05:49;8.93;;;8.13;;
10031;SDS011;5056;44.272;19.892;2023-05-29T13:08:16;11.55;;;9.90;;
10031;SDS011;5056;44.272;19.892;2023-05-29T13:10:45;9.73;;;8.20;;
10031;SDS011;5056;44.272;19.892;2023-05-29T13:13:12;10.80;;;9.63;;
10031;SDS011;5056;44.272;19.892;2023-05-29T13:15:40;11.23;;;9.50;;
10031;SDS011;5056;44.272;19.892;2023-05-29T13:18:09;11.40;;;9.48;;
10031;SDS011;5056;44.272;19.892;2023-05-29T13:20:36;11.27;;;10.27;;
10031;SDS011;5056;44.272;19.892;2023-05-29T13:23:04;11.88;;;9.68;;
10031;SDS011;5056;44.272;19.892;2023-05-29T13:25:32;10.35;;;9.20;;
10031;SDS011;5056;44.272;19.892;2023-05-29T13:28:00;10.13;;;9.38;;
10031;SDS011;5056;44.272;19.892;2023-05-29T13:30:27;10.32;;;9.35;;
10031;SDS011;5056;44.272;19.892;2023-05-29T13:32:56;9.98;;;9.02;;
10031;SDS011;5056;44.272;19.892;2023-05-29T13:35:23;9.25;;;8.45;;
10031;SDS011;5056;44.272;19.892;2023-05-29T13:37:50;8.60;;;7.97;;
10031;SDS011;5056;44.272;19.892;2023-05-29T13:40:18;9.70;;;8.80;;
10031;SDS011;5056;44.272;19.892;2023-05-29T13:42:45;8.80;;;7.90;;
10031;SDS011;5056;44.272;19.892;2023-05-29T13:48:24;9.55;;;8.85;;
10031;SDS011;5056;44.272;19.892;2023-05-29T13:50:52;8.27;;;7.60;;
10031;SDS011;5056;44.272;19.892;2023-05-29T13:53:20;8.85;;;8.05;;
10031;SDS011;5056;44.272;19.892;2023-05-29T13:55:47;8.80;;;7.97;;
10031;SDS011;5056;44.272;19.892;2023-05-29T13:58:14;8.60;;;7.90;;
10031;SDS011;5056;44.272;19.892;2023-05-29T14:00:40;8.35;;;7.75;;
10031;SDS011;5056;44.272;19.892;2023-05-29T14:03:09;9.93;;;9.07;;
10031;SDS011;5056;44.272;19.892;2023-05-29T14:05:38;11.63;;;9.82;;
10031;SDS011;5056;44.272;19.892;2023-05-29T14:08:05;10.32;;;9.15;;
10031;SDS011;5056;44.272;19.892;2023-05-29T14:10:39;9.77;;;8.88;;
10031;SDS011;5056;44.272;19.892;2023-05-29T14:13:06;8.95;;;8.23;;
10031;SDS011;5056;44.272;19.892;2023-05-29T14:15:33;9.30;;;8.50;;
10031;SDS011;5056;44.272;19.892;2023-05-29T14:18:02;10.32;;;9.15;;
10031;SDS011;5056;44.272;19.892;2023-05-29T14:20:30;9.38;;;8.68;;
10031;SDS011;5056;44.272;19.892;2023-05-29T14:23:00;8.80;;;8.10;;
10031;SDS011;5056;44.272;19.892;2023-05-29T14:25:27;9.35;;;8.45;;
10031;SDS011;5056;44.272;19.892;2023-05-29T14:30:44;9.40;;;8.60;;
10031;SDS011;5056;44.272;19.892;2023-05-29T14:33:25;8.35;;;7.75;;
10031;SDS011;5056;44.272;19.892;2023-05-29T14:35:55;9.18;;;8.38;;
10031;SDS011;5056;44.272;19.892;2023-05-29T14:41:01;9.75;;;8.85;;
10031;SDS011;5056;44.272;19.892;2023-05-29T14:43:33;8.45;;;7.85;;
10031;SDS011;5056;44.272;19.892;2023-05-29T14:46:00;9.60;;;8.90;;
10031;SDS011;5056;44.272;19.892;2023-05-29T14:48:28;9.23;;;8.48;;
10031;SDS011;5056;44.272;19.892;2023-05-29T14:51:01;8.95;;;8.15;;
10031;SDS011;5056;44.272;19.892;2023-05-29T14:53:31;10.57;;;9.55;;
10031;SDS011;5056;44.272;19.892;2023-05-29T14:56:12;22.73;;;12.98;;
10031;SDS011;5056;44.272;19.892;2023-05-29T14:58:39;14.35;;;9.63;;
10031;SDS011;5056;44.272;19.892;2023-05-29T15:01:07;10.93;;;9.80;;
10031;SDS011;5056;44.272;19.892;2023-05-29T15:03:35;9.75;;;8.93;;
10031;SDS011;5056;44.272;19.892;2023-05-29T15:06:08;13.27;;;10.23;;
10031;SDS011;5056;44.272;19.892;2023-05-29T15:08:38;8.05;;;7.18;;
10031;SDS011;5056;44.272;19.892;2023-05-29T15:11:07;7.38;;;6.50;;
10031;SDS011;5056;44.272;19.892;2023-05-29T15:13:34;7.13;;;5.63;;
10031;SDS011;5056;44.272;19.892;2023-05-29T15:16:03;5.05;;;4.65;;
10031;SDS011;5056;44.272;19.892;2023-05-29T15:18:32;6.38;;;4.97;;
10031;SDS011;5056;44.272;19.892;2023-05-29T15:20:59;7.18;;;4.68;;
10031;SDS011;5056;44.272;19.892;2023-05-29T15:23:27;5.22;;;4.82;;
10031;SDS011;5056;44.272;19.892;2023-05-29T15:25:55;5.93;;;5.40;;
10031;SDS011;5056;44.272;19.892;2023-05-29T15:28:22;7.28;;;6.30;;
10031;SDS011;5056;44.272;19.892;2023-05-29T15:30:49;6.82;;;5.82;;
10031;SDS011;5056;44.272;19.892;2023-05-29T15:33:16;12.15;;;6.70;;